createdAt,value
2019-05-13T00:00:47.681Z,7.92
2019-05-13T00:05:53.532Z,10.75
2019-05-13T00:10:57.289Z,8.45
2019-05-13T00:16:03.510Z,8.13
2019-05-13T00:21:06.841Z,7.45
2019-05-13T00:26:10.769Z,8.13
2019-05-13T00:31:14.672Z,8.25
2019-05-13T00:36:18.700Z,7.45
2019-05-13T00:41:24.480Z,7.85
2019-05-13T00:46:28.573Z,7.85
2019-05-13T00:51:33.721Z,8.20
2019-05-13T00:56:37.904Z,7.30
2019-05-13T01:01:43.923Z,8.08
2019-05-13T01:06:47.381Z,7.75
2019-05-13T01:11:53.541Z,7.50
2019-05-13T01:16:56.972Z,7.05
2019-05-13T01:22:03.239Z,7.72
2019-05-13T01:27:06.618Z,6.60
2019-05-13T01:32:10.570Z,7.08
2019-05-13T01:37:14.530Z,6.28
2019-05-13T01:42:18.458Z,5.70
2019-05-13T01:47:24.079Z,6.22
2019-05-13T01:52:28.088Z,5.30
2019-05-13T01:57:34.141Z,5.85
2019-05-13T02:02:37.568Z,5.55
2019-05-13T02:07:56.069Z,4.53
2019-05-13T02:12:46.957Z,4.35
2019-05-13T02:17:50.827Z,3.87
2019-05-13T02:22:54.706Z,4.40
2019-05-13T02:27:58.574Z,4.28
2019-05-13T02:33:03.054Z,4.20
2019-05-13T02:38:19.832Z,4.17
2019-05-13T02:43:13.667Z,3.55
2019-05-13T02:48:17.739Z,4.45
2019-05-13T02:53:23.696Z,3.70
2019-05-13T02:58:27.137Z,4.10
2019-05-13T03:03:32.714Z,4.30
2019-05-13T03:08:46.224Z,4.17
2019-05-13T03:13:42.616Z,3.95
2019-05-13T03:18:46.613Z,4.03
2019-05-13T03:23:52.614Z,3.62
2019-05-13T03:28:56.017Z,3.75
2019-05-13T03:34:05.693Z,3.70
2019-05-13T03:39:14.481Z,3.50
2019-05-13T03:44:13.684Z,3.33
2019-05-13T03:49:23.029Z,3.85
2019-05-13T03:54:25.627Z,3.27
2019-05-13T03:59:32.868Z,3.00
2019-05-13T04:04:35.001Z,3.80
2019-05-13T04:09:42.118Z,3.25
2019-05-13T04:14:44.921Z,3.33
2019-05-13T04:19:48.938Z,2.83
2019-05-13T04:24:53.198Z,5.85
2019-05-13T04:29:57.163Z,3.45
2019-05-13T04:35:03.858Z,2.90
2019-05-13T04:40:08.153Z,2.72
2019-05-13T04:45:13.567Z,2.67
2019-05-13T04:50:17.710Z,3.15
2019-05-13T04:55:22.875Z,3.02
2019-05-13T05:00:49.725Z,3.87
2019-05-13T05:06:15.768Z,2.72
2019-05-13T05:11:52.923Z,2.52
2019-05-13T05:17:03.346Z,3.05
2019-05-13T05:22:22.299Z,2.95
2019-05-13T05:27:42.022Z,2.23
2019-05-13T05:33:05.234Z,2.30
2019-05-13T05:38:45.406Z,2.90
2019-05-13T05:43:52.257Z,2.77
2019-05-13T05:48:57.932Z,2.55
2019-05-13T05:54:04.023Z,3.05
2019-05-13T05:59:08.100Z,2.67
2019-05-13T06:04:12.730Z,2.58
2019-05-13T06:09:16.754Z,2.87
2019-05-13T06:14:21.948Z,3.12
2019-05-13T06:19:26.006Z,2.90
2019-05-13T06:24:31.241Z,2.50
2019-05-13T06:29:35.375Z,2.60
2019-05-13T06:34:41.391Z,2.20
2019-05-13T06:39:44.770Z,3.17
2019-05-13T06:44:51.205Z,2.80
2019-05-13T06:49:54.192Z,2.72
2019-05-13T06:54:58.078Z,2.00
2019-05-13T07:00:02.028Z,2.65
2019-05-13T07:05:07.842Z,2.20
2019-05-13T07:10:12.694Z,2.20
2019-05-13T07:15:16.975Z,2.40
2019-05-13T07:20:22.626Z,2.00
2019-05-13T07:25:26.537Z,3.15
2019-05-13T07:30:45.364Z,2.72
2019-05-13T07:35:49.301Z,2.40
2019-05-13T07:41:04.330Z,2.87
2019-05-13T07:46:08.266Z,2.65
2019-05-13T07:51:12.208Z,2.90
2019-05-13T07:56:16.100Z,2.05
2019-05-13T08:01:22.058Z,2.90
2019-05-13T08:06:25.595Z,2.52
2019-05-13T08:11:34.982Z,2.67
2019-05-13T08:16:35.045Z,2.77
2019-05-13T08:21:38.914Z,1.52
2019-05-13T08:26:44.927Z,4.80
2019-05-13T08:31:48.352Z,2.87
2019-05-13T08:36:52.276Z,2.30
2019-05-13T08:42:04.135Z,1.90
2019-05-13T08:47:03.101Z,1.80
2019-05-13T08:52:07.464Z,1.87
2019-05-13T08:57:11.883Z,1.72
2019-05-13T09:02:16.038Z,1.70
2019-05-13T09:07:23.891Z,1.40
2019-05-13T09:12:32.243Z,0.90
2019-05-13T09:17:31.928Z,1.00
2019-05-13T09:22:35.875Z,1.60
2019-05-13T09:27:42.323Z,2.02
2019-05-13T09:32:45.273Z,2.08
2019-05-13T09:37:51.453Z,1.98
2019-05-13T09:42:55.431Z,2.08
2019-05-13T09:48:01.646Z,2.25
2019-05-13T09:53:05.236Z,1.98
2019-05-13T09:58:11.678Z,2.15
2019-05-13T10:03:15.648Z,1.80
2019-05-13T10:08:22.239Z,1.75
2019-05-13T10:13:26.537Z,1.77
2019-05-13T10:18:32.701Z,1.80
2019-05-13T10:23:36.113Z,1.70
2019-05-13T10:28:42.674Z,1.77
2019-05-13T10:33:46.148Z,1.35
2019-05-13T10:38:52.149Z,1.42
2019-05-13T10:43:55.835Z,1.52
2019-05-13T10:49:01.895Z,1.37
2019-05-13T10:54:05.496Z,1.32
2019-05-13T10:59:12.366Z,1.90
2019-05-13T11:04:14.874Z,1.10
2019-05-13T11:09:21.311Z,1.50
2019-05-13T11:14:24.365Z,2.90
2019-05-13T11:19:33.378Z,1.77
2019-05-13T11:24:33.764Z,1.25
2019-05-13T11:29:37.632Z,1.35
2019-05-13T11:34:42.064Z,1.30
2019-05-13T11:39:46.089Z,1.40
2019-05-13T11:44:52.823Z,1.35
2019-05-13T11:49:55.496Z,1.20
2019-05-13T11:54:59.562Z,2.42
2019-05-13T12:00:07.745Z,1.62
2019-05-13T12:05:12.256Z,1.75
2019-05-13T12:10:16.278Z,1.70
2019-05-13T12:15:28.867Z,1.40
2019-05-13T12:20:25.921Z,1.70
2019-05-13T12:25:33.341Z,1.60
2019-05-13T12:30:35.422Z,1.45
2019-05-13T12:35:39.759Z,2.42
2019-05-13T12:40:43.702Z,1.47
2019-05-13T12:45:47.632Z,1.57
2019-05-13T12:50:53.921Z,1.60
2019-05-13T13:01:02.821Z,1.52
2019-05-13T13:11:12.368Z,1.60
2019-05-13T13:16:16.384Z,1.50
2019-05-13T13:21:24.434Z,1.52
2019-05-13T13:26:25.951Z,1.20
2019-05-13T13:31:32.972Z,1.30
2019-05-13T13:36:35.455Z,1.10
2019-05-13T13:41:39.377Z,1.30
2019-05-13T13:46:49.323Z,1.20
2019-05-13T13:51:50.095Z,1.00
2019-05-13T13:56:56.022Z,0.93
2019-05-13T14:02:05.132Z,1.22
2019-05-13T14:07:08.884Z,1.55
2019-05-13T14:07:22.216Z,0.90
2019-05-13T14:12:11.382Z,1.32
2019-05-13T14:17:15.448Z,1.27
2019-05-13T14:22:21.691Z,1.20
2019-05-13T14:27:25.475Z,1.52
2019-05-13T14:32:31.948Z,1.17
2019-05-13T14:37:35.160Z,1.02
2019-05-13T14:42:39.182Z,1.60
2019-05-13T14:47:43.100Z,0.90
2019-05-13T14:52:47.072Z,1.10
2019-05-13T14:57:52.542Z,2.27
2019-05-13T15:02:56.584Z,1.42
2019-05-13T15:08:38.498Z,2.10
2019-05-13T15:13:42.648Z,4.37
2019-05-13T15:18:46.641Z,2.27
2019-05-13T15:23:51.834Z,1.30
2019-05-13T15:28:55.997Z,1.82
2019-05-13T15:34:02.596Z,1.70
2019-05-13T15:39:07.237Z,8.00
2019-05-13T15:44:11.502Z,4.30
2019-05-13T15:49:15.708Z,2.47
2019-05-13T15:54:21.933Z,1.77
2019-05-13T15:59:25.206Z,2.27
2019-05-13T16:04:29.291Z,2.77
2019-05-13T16:09:33.173Z,1.95
2019-05-13T16:14:37.066Z,2.42
2019-05-13T16:19:42.029Z,1.90
2019-05-13T16:24:46.115Z,8.78
2019-05-13T16:29:51.541Z,7.58
2019-05-13T16:34:56.541Z,2.62
2019-05-13T16:40:00.492Z,2.25
2019-05-13T16:45:04.687Z,7.60
2019-05-13T16:50:11.319Z,1.70
2019-05-13T16:55:15.110Z,1.72
2019-05-13T17:00:20.889Z,1.52
2019-05-13T17:05:24.765Z,1.85
2019-05-13T17:10:31.554Z,4.37
2019-05-13T17:15:35.695Z,5.37
2019-05-13T17:20:41.444Z,14.65
2019-05-13T17:25:45.307Z,3.02
2019-05-13T17:30:49.191Z,3.55
2019-05-13T17:35:53.124Z,5.15
2019-05-13T17:40:56.991Z,6.00
2019-05-13T17:46:01.476Z,3.25
2019-05-13T17:51:05.472Z,3.10
2019-05-13T17:56:11.217Z,3.05
2019-05-13T18:01:15.343Z,4.25
2019-05-13T18:06:20.032Z,5.10
2019-05-13T18:11:24.007Z,5.65
2019-05-13T18:16:27.990Z,6.25
2019-05-13T18:21:32.140Z,46.00
2019-05-13T18:26:36.054Z,12.37
2019-05-13T18:31:42.035Z,9.70
2019-05-13T18:36:46.107Z,43.28
2019-05-13T18:41:50.926Z,31.48
2019-05-13T18:46:55.042Z,7.72
2019-05-13T18:51:58.962Z,9.35
2019-05-13T18:57:02.892Z,15.80
2019-05-13T19:02:06.867Z,21.90
2019-05-13T19:07:10.822Z,15.72
2019-05-13T19:12:15.028Z,14.43
2019-05-13T19:17:18.999Z,10.43
2019-05-13T19:22:22.869Z,8.00
2019-05-13T19:27:26.763Z,7.17
2019-05-13T19:32:32.394Z,8.73
2019-05-13T19:37:36.449Z,30.10
2019-05-13T19:42:41.842Z,14.47
2019-05-13T19:47:45.878Z,35.05
2019-05-13T19:52:51.744Z,37.75
2019-05-13T19:57:56.005Z,32.98
2019-05-13T20:03:01.504Z,37.05
2019-05-13T20:08:05.437Z,43.68
2019-05-13T20:13:11.248Z,39.42
2019-05-13T20:18:15.387Z,34.67
2019-05-13T20:23:21.178Z,41.80
2019-05-13T20:28:25.112Z,32.35
2019-05-13T20:33:32.070Z,27.80
2019-05-13T20:38:36.551Z,20.32
2019-05-13T20:43:42.603Z,16.02
2019-05-13T20:48:46.304Z,20.92
2019-05-13T20:53:51.825Z,17.50
2019-05-13T20:58:56.050Z,16.12
2019-05-13T21:04:01.813Z,18.48
2019-05-13T21:09:06.328Z,22.42
2019-05-13T21:14:10.353Z,26.70
2019-05-13T21:19:14.233Z,26.45
2019-05-13T21:24:18.161Z,23.20
2019-05-13T21:29:22.199Z,23.75
2019-05-13T21:34:26.127Z,16.60
2019-05-13T21:39:31.977Z,15.10
2019-05-13T21:44:35.584Z,20.20
2019-05-13T21:49:39.477Z,20.25
2019-05-13T21:54:43.361Z,21.60
2019-05-13T21:59:47.251Z,21.10
2019-05-13T22:04:51.868Z,16.27
2019-05-13T22:09:55.928Z,13.58
2019-05-13T22:15:00.952Z,12.58
2019-05-13T22:20:07.145Z,10.15
2019-05-13T22:25:12.131Z,8.38
2019-05-13T22:30:16.421Z,5.60
2019-05-13T22:35:21.754Z,5.42
2019-05-13T22:40:25.888Z,4.78
2019-05-13T22:45:31.240Z,5.00
2019-05-13T22:50:36.393Z,4.33
2019-05-13T22:55:41.783Z,5.03
2019-05-13T23:00:46.243Z,5.20
2019-05-13T23:05:52.222Z,4.05
2019-05-13T23:10:56.045Z,4.90
2019-05-13T23:16:02.136Z,4.80
2019-05-13T23:21:05.743Z,5.10
2019-05-13T23:26:11.678Z,5.08
2019-05-13T23:31:15.362Z,5.10
2019-05-13T23:36:21.153Z,4.35
2019-05-13T23:41:24.832Z,4.72
2019-05-13T23:46:28.762Z,4.67
2019-05-13T23:51:32.691Z,4.62
2019-05-13T23:56:36.600Z,5.28
